createdAt,value
2018-07-30T00:01:00.221Z,22.70
2018-07-30T00:03:28.961Z,22.40
2018-07-30T00:05:58.210Z,22.30
2018-07-30T00:08:26.853Z,22.00
2018-07-30T00:10:55.440Z,22.00
2018-07-30T00:13:24.159Z,22.10
2018-07-30T00:15:52.796Z,22.20
2018-07-30T00:18:21.452Z,22.30
2018-07-30T00:20:50.040Z,22.30
2018-07-30T00:23:18.551Z,22.30
2018-07-30T00:25:47.332Z,22.30
2018-07-30T00:28:16.264Z,22.20
2018-07-30T00:30:44.897Z,22.00
2018-07-30T00:33:13.454Z,22.00
2018-07-30T00:35:42.083Z,21.80
2018-07-30T00:40:39.180Z,21.80
2018-07-30T00:43:07.726Z,21.90
2018-07-30T00:45:36.285Z,21.90
2018-07-30T00:48:05.236Z,21.90
2018-07-30T00:50:34.005Z,22.00
2018-07-30T00:53:02.901Z,21.90
2018-07-30T00:55:31.490Z,21.90
2018-07-30T00:58:00.143Z,21.90
2018-07-30T01:00:28.794Z,21.90
2018-07-30T01:02:57.344Z,21.90
2018-07-30T01:05:25.841Z,21.90
2018-07-30T01:07:54.328Z,21.80
2018-07-30T01:10:22.890Z,21.80
2018-07-30T01:12:51.592Z,21.80
2018-07-30T01:15:20.124Z,21.80
2018-07-30T01:17:48.599Z,21.80
2018-07-30T01:20:17.235Z,21.80
2018-07-30T01:22:45.728Z,21.80
2018-07-30T01:25:14.368Z,21.80
2018-07-30T01:27:43.076Z,21.70
2018-07-30T01:30:12.061Z,21.70
2018-07-30T01:32:40.617Z,21.60
2018-07-30T01:35:10.235Z,21.60
2018-07-30T01:37:38.764Z,21.70
2018-07-30T01:40:07.366Z,21.70
2018-07-30T01:42:37.036Z,21.70
2018-07-30T01:45:05.893Z,21.70
2018-07-30T01:47:35.567Z,21.70
2018-07-30T01:50:04.556Z,21.60
2018-07-30T01:52:33.589Z,21.60
2018-07-30T01:55:02.635Z,21.60
2018-07-30T01:57:31.193Z,21.60
2018-07-30T01:59:59.893Z,21.60
2018-07-30T02:02:28.577Z,21.60
2018-07-30T02:04:59.199Z,21.40
2018-07-30T02:07:27.760Z,21.40
2018-07-30T02:09:56.396Z,21.40
2018-07-30T02:12:24.893Z,21.40
2018-07-30T02:14:53.442Z,21.40
2018-07-30T02:17:22.446Z,21.40
2018-07-30T02:19:51.370Z,21.40
2018-07-30T02:22:19.948Z,21.40
2018-07-30T02:24:48.836Z,21.40
2018-07-30T02:27:17.780Z,21.40
2018-07-30T02:29:46.784Z,21.40
2018-07-30T02:32:15.366Z,21.40
2018-07-30T02:34:44.162Z,21.30
2018-07-30T02:37:12.786Z,21.40
2018-07-30T02:39:42.651Z,21.30
2018-07-30T02:42:13.055Z,21.30
2018-07-30T02:44:41.685Z,21.30
2018-07-30T02:47:11.148Z,21.30
2018-07-30T02:52:09.144Z,21.30
2018-07-30T02:54:37.878Z,21.30
2018-07-30T02:57:07.916Z,21.30
2018-07-30T02:59:36.733Z,21.20
2018-07-30T03:02:05.280Z,21.20
2018-07-30T03:04:34.298Z,21.10
2018-07-30T03:09:31.066Z,21.10
2018-07-30T03:11:59.617Z,21.10
2018-07-30T03:14:28.114Z,21.10
2018-07-30T03:16:56.652Z,21.20
2018-07-30T03:19:25.242Z,21.10
2018-07-30T03:21:53.777Z,20.90
2018-07-30T03:24:22.328Z,20.60
2018-07-30T03:26:50.811Z,20.60
2018-07-30T03:29:19.736Z,20.60
2018-07-30T03:31:48.470Z,20.60
2018-07-30T03:34:17.195Z,20.70
2018-07-30T03:36:45.812Z,20.70
2018-07-30T03:39:14.345Z,20.70
2018-07-30T03:41:42.876Z,20.70
2018-07-30T03:44:11.456Z,20.70
2018-07-30T03:46:40.306Z,20.70
2018-07-30T03:51:37.052Z,20.80
2018-07-30T03:56:34.207Z,20.70
2018-07-30T03:59:03.444Z,20.70
2018-07-30T04:01:32.127Z,20.70
2018-07-30T04:04:00.792Z,20.70
2018-07-30T04:06:29.359Z,20.70
2018-07-30T04:08:58.005Z,20.60
2018-07-30T04:11:26.524Z,20.60
2018-07-30T04:13:55.763Z,20.50
2018-07-30T04:16:24.460Z,20.50
2018-07-30T04:18:53.060Z,20.50
2018-07-30T04:21:21.588Z,20.40
2018-07-30T04:23:50.104Z,20.40
2018-07-30T04:26:18.767Z,20.40
2018-07-30T04:28:47.310Z,20.40
2018-07-30T04:31:16.177Z,20.50
2018-07-30T04:33:44.861Z,20.40
2018-07-30T04:36:13.400Z,20.40
2018-07-30T04:38:41.943Z,20.40
2018-07-30T04:41:10.869Z,20.40
2018-07-30T04:43:39.379Z,20.50
2018-07-30T04:46:08.122Z,20.50
2018-07-30T04:48:36.594Z,20.60
2018-07-30T04:51:05.159Z,20.70
2018-07-30T04:53:34.864Z,20.80
2018-07-30T04:56:03.685Z,20.80
2018-07-30T04:58:32.259Z,20.90
2018-07-30T05:01:00.856Z,21.00
2018-07-30T05:03:29.613Z,21.00
2018-07-30T05:08:26.356Z,21.20
2018-07-30T05:10:54.997Z,21.20
2018-07-30T05:13:23.492Z,21.30
2018-07-30T05:15:52.118Z,21.40
2018-07-30T05:18:20.699Z,21.50
2018-07-30T05:20:49.290Z,21.60
2018-07-30T05:23:18.036Z,21.70
2018-07-30T05:25:46.574Z,21.70
2018-07-30T05:28:15.226Z,21.80
2018-07-30T05:30:43.808Z,21.80
2018-07-30T05:33:12.284Z,21.70
2018-07-30T05:35:42.206Z,21.60
2018-07-30T05:38:10.798Z,21.70
2018-07-30T05:43:07.609Z,21.80
2018-07-30T05:45:36.127Z,21.90
2018-07-30T05:48:04.766Z,22.00
2018-07-30T05:50:33.986Z,22.10
2018-07-30T05:53:02.518Z,22.10
2018-07-30T05:55:31.017Z,22.20
2018-07-30T05:58:00.140Z,22.20
2018-07-30T06:00:28.696Z,22.40
2018-07-30T06:02:57.577Z,22.40
2018-07-30T06:05:26.180Z,22.50
2018-07-30T06:07:55.075Z,22.60
2018-07-30T06:10:23.643Z,22.70
2018-07-30T06:12:52.134Z,22.80
2018-07-30T06:15:20.717Z,22.80
2018-07-30T06:17:49.794Z,22.90
2018-07-30T06:20:18.431Z,23.00
2018-07-30T06:22:46.953Z,23.00
2018-07-30T06:25:16.195Z,23.10
2018-07-30T06:27:44.768Z,23.20
2018-07-30T06:30:13.910Z,23.40
2018-07-30T06:32:43.425Z,23.50
2018-07-30T06:35:12.025Z,23.60
2018-07-30T06:37:40.549Z,23.60
2018-07-30T06:40:09.154Z,23.60
2018-07-30T06:42:37.810Z,23.60
2018-07-30T06:45:06.424Z,23.80
2018-07-30T06:47:35.110Z,24.10
2018-07-30T06:50:04.067Z,24.90
2018-07-30T06:52:32.748Z,25.30
2018-07-30T06:55:01.861Z,25.30
2018-07-30T06:57:30.412Z,25.30
2018-07-30T06:59:59.242Z,25.50
2018-07-30T07:02:27.784Z,25.90
2018-07-30T07:07:24.494Z,26.50
2018-07-30T07:09:53.283Z,26.60
2018-07-30T07:12:22.776Z,26.90
2018-07-30T07:14:51.456Z,27.20
2018-07-30T07:17:19.970Z,27.30
2018-07-30T07:19:48.528Z,27.60
2018-07-30T07:22:17.096Z,27.60
2018-07-30T07:24:45.663Z,27.60
2018-07-30T07:27:14.147Z,27.50
2018-07-30T07:29:43.132Z,27.50
2018-07-30T07:32:11.740Z,27.70
2018-07-30T07:34:40.329Z,27.40
2018-07-30T07:37:09.124Z,27.10
2018-07-30T07:39:37.817Z,27.20
2018-07-30T07:42:06.344Z,27.20
2018-07-30T07:44:34.928Z,27.50
2018-07-30T07:47:03.523Z,27.40
2018-07-30T07:49:32.082Z,27.60
2018-07-30T07:52:00.644Z,27.70
2018-07-30T07:54:29.211Z,27.70
2018-07-30T07:56:57.837Z,27.70
2018-07-30T07:59:26.460Z,27.90
2018-07-30T08:01:55.024Z,28.10
2018-07-30T08:04:23.684Z,27.90
2018-07-30T08:06:52.195Z,27.80
2018-07-30T08:09:20.776Z,27.90
2018-07-30T08:11:49.293Z,27.90
2018-07-30T08:14:17.872Z,27.90
2018-07-30T08:16:47.466Z,28.10
2018-07-30T08:19:16.078Z,28.10
2018-07-30T08:21:44.653Z,28.10
2018-07-30T08:24:13.246Z,28.20
2018-07-30T08:26:41.927Z,28.20
2018-07-30T08:29:11.144Z,28.10
2018-07-30T08:31:39.730Z,28.10
2018-07-30T08:34:08.338Z,28.20
2018-07-30T08:36:37.170Z,28.40
2018-07-30T08:39:09.135Z,28.40
2018-07-30T08:41:40.118Z,28.50
2018-07-30T08:44:09.758Z,28.60
2018-07-30T08:46:38.261Z,28.70
2018-07-30T08:49:09.974Z,28.50
2018-07-30T08:51:40.294Z,28.40
2018-07-30T08:54:10.831Z,28.50
2018-07-30T08:56:40.089Z,28.60
2018-07-30T08:59:08.720Z,28.60
2018-07-30T09:01:37.368Z,28.70
2018-07-30T09:04:08.393Z,28.70
2018-07-30T09:06:37.009Z,28.80
2018-07-30T09:09:12.832Z,28.90
2018-07-30T09:11:41.467Z,29.00
2018-07-30T09:14:10.113Z,28.90
2018-07-30T09:16:38.676Z,29.00
2018-07-30T09:19:07.158Z,29.10
2018-07-30T09:21:35.694Z,29.10
2018-07-30T09:24:04.383Z,29.10
2018-07-30T09:26:32.996Z,29.20
2018-07-30T09:29:01.518Z,29.20
2018-07-30T09:31:30.183Z,29.30
2018-07-30T09:33:59.697Z,29.30
2018-07-30T09:36:28.205Z,29.20
2018-07-30T09:38:56.781Z,29.20
2018-07-30T09:41:25.266Z,29.20
2018-07-30T09:43:53.767Z,29.20
2018-07-30T09:46:22.603Z,29.40
2018-07-30T09:48:51.102Z,29.50
2018-07-30T09:51:19.604Z,29.50
2018-07-30T09:53:48.222Z,29.50
2018-07-30T09:56:16.789Z,29.60
2018-07-30T09:58:45.209Z,29.60
2018-07-30T10:01:19.110Z,29.60
2018-07-30T10:03:47.686Z,29.50
2018-07-30T10:06:16.351Z,29.60
2018-07-30T10:08:44.933Z,29.60
2018-07-30T10:11:15.260Z,29.60
2018-07-30T10:13:44.133Z,29.70
2018-07-30T10:18:41.357Z,30.10
2018-07-30T10:21:09.941Z,30.20
2018-07-30T10:23:38.786Z,30.00
2018-07-30T10:26:07.391Z,29.90
2018-07-30T10:28:36.099Z,30.00
2018-07-30T10:31:04.850Z,30.10
2018-07-30T10:33:33.603Z,30.30
2018-07-30T10:36:02.251Z,30.30
2018-07-30T10:38:30.844Z,30.40
2018-07-30T10:41:00.406Z,30.40
2018-07-30T10:43:28.887Z,30.40
2018-07-30T10:45:57.576Z,30.30
2018-07-30T10:48:26.145Z,30.30
2018-07-30T10:50:55.250Z,30.40
2018-07-30T10:53:24.489Z,30.60
2018-07-30T10:55:53.024Z,30.60
2018-07-30T10:58:21.918Z,30.80
2018-07-30T11:00:50.437Z,30.90
2018-07-30T11:03:19.034Z,30.90
2018-07-30T11:05:47.661Z,31.00
2018-07-30T11:08:16.304Z,31.00
2018-07-30T11:10:44.874Z,30.90
2018-07-30T11:13:13.366Z,31.10
2018-07-30T11:15:42.607Z,30.90
2018-07-30T11:18:11.209Z,30.90
2018-07-30T11:20:39.761Z,31.00
2018-07-30T11:23:08.329Z,31.10
2018-07-30T11:25:36.942Z,31.10
2018-07-30T11:28:05.608Z,31.20
2018-07-30T11:30:34.776Z,31.30
2018-07-30T11:33:03.344Z,31.20
2018-07-30T11:35:31.975Z,31.30
2018-07-30T11:38:00.716Z,31.30
2018-07-30T11:40:29.408Z,31.20
2018-07-30T11:42:58.314Z,31.30
2018-07-30T11:45:27.097Z,31.40
2018-07-30T11:47:55.671Z,31.60
2018-07-30T11:50:24.471Z,31.70
2018-07-30T11:52:52.992Z,31.80
2018-07-30T11:55:21.530Z,31.70
2018-07-30T11:57:50.078Z,31.90
2018-07-30T12:00:18.639Z,31.80
2018-07-30T12:02:47.359Z,31.90
2018-07-30T12:05:17.013Z,31.70
2018-07-30T12:07:45.584Z,31.60
2018-07-30T12:10:14.154Z,31.60
2018-07-30T12:12:42.778Z,31.80
2018-07-30T12:15:11.682Z,31.90
2018-07-30T12:17:40.170Z,31.90
2018-07-30T12:20:08.789Z,31.80
2018-07-30T12:22:37.515Z,31.90
2018-07-30T12:25:06.336Z,31.70
2018-07-30T12:27:35.013Z,31.80
2018-07-30T12:30:03.912Z,31.80
2018-07-30T12:32:32.385Z,31.70
2018-07-30T12:35:01.956Z,31.60
2018-07-30T12:37:30.477Z,31.50
2018-07-30T12:39:59.030Z,31.40
2018-07-30T12:42:28.008Z,31.50
2018-07-30T12:44:56.575Z,31.70
2018-07-30T12:47:25.512Z,32.00
2018-07-30T12:49:53.997Z,32.00
2018-07-30T12:52:22.595Z,32.20
2018-07-30T12:54:51.152Z,32.50
2018-07-30T12:57:20.660Z,32.40
2018-07-30T12:59:49.149Z,32.40
2018-07-30T13:02:18.160Z,32.50
2018-07-30T13:04:47.185Z,32.30
2018-07-30T13:07:15.668Z,32.40
2018-07-30T13:09:44.246Z,32.40
2018-07-30T13:12:12.772Z,32.20
2018-07-30T13:14:41.361Z,32.30
2018-07-30T13:19:38.637Z,32.20
2018-07-30T13:22:07.174Z,32.20
2018-07-30T13:24:35.653Z,32.10
2018-07-30T13:27:04.515Z,32.20
2018-07-30T13:29:33.128Z,32.30
2018-07-30T13:32:01.735Z,32.30
2018-07-30T13:34:30.289Z,32.30
2018-07-30T13:36:58.776Z,32.50
2018-07-30T13:39:27.352Z,32.70
2018-07-30T13:41:56.054Z,32.70
2018-07-30T13:44:24.580Z,32.80
2018-07-30T13:46:53.567Z,32.90
2018-07-30T13:49:22.185Z,32.80
2018-07-30T13:51:50.755Z,32.70
2018-07-30T13:54:19.485Z,32.70
2018-07-30T13:59:16.993Z,32.30
2018-07-30T14:01:45.557Z,32.30
2018-07-30T14:04:14.110Z,32.30
2018-07-30T14:06:42.654Z,32.30
2018-07-30T14:09:12.217Z,32.40
2018-07-30T14:14:10.280Z,32.70
2018-07-30T14:16:39.508Z,32.60
2018-07-30T14:19:08.133Z,32.60
2018-07-30T14:21:36.612Z,32.80
2018-07-30T14:24:05.652Z,33.00
2018-07-30T14:26:34.656Z,33.00
2018-07-30T14:29:03.159Z,33.00
2018-07-30T14:31:31.827Z,33.00
2018-07-30T14:34:00.440Z,32.90
2018-07-30T14:36:28.925Z,33.00
2018-07-30T14:38:57.393Z,32.80
2018-07-30T14:41:25.945Z,32.60
2018-07-30T14:43:54.432Z,32.70
2018-07-30T14:46:23.067Z,32.80
2018-07-30T14:48:51.610Z,32.70
2018-07-30T14:51:20.256Z,32.70
2018-07-30T14:53:48.714Z,32.70
2018-07-30T14:56:17.744Z,32.60
2018-07-30T14:58:46.188Z,32.60
2018-07-30T15:01:14.644Z,32.50
2018-07-30T15:03:43.184Z,32.50
2018-07-30T15:06:11.846Z,32.40
2018-07-30T15:08:40.311Z,32.30
2018-07-30T15:11:09.147Z,32.40
2018-07-30T15:13:38.056Z,32.40
2018-07-30T15:16:06.644Z,32.50
2018-07-30T15:18:35.142Z,32.70
2018-07-30T15:21:03.744Z,32.70
2018-07-30T15:23:32.245Z,32.90
2018-07-30T15:26:00.729Z,33.00
2018-07-30T15:28:29.276Z,32.90
2018-07-30T15:30:57.904Z,32.90
2018-07-30T15:33:26.908Z,32.90
2018-07-30T15:35:55.671Z,32.90
2018-07-30T15:38:24.161Z,32.80
2018-07-30T15:40:52.644Z,32.90
2018-07-30T15:43:21.167Z,32.70
2018-07-30T15:45:50.409Z,32.70
2018-07-30T15:48:18.902Z,32.70
2018-07-30T15:50:47.476Z,32.70
2018-07-30T15:53:15.978Z,32.70
2018-07-30T15:55:44.454Z,32.60
2018-07-30T15:58:13.119Z,32.40
2018-07-30T16:00:41.616Z,32.30
2018-07-30T16:03:10.129Z,32.20
2018-07-30T16:05:38.812Z,32.10
2018-07-30T16:08:07.521Z,32.20
2018-07-30T16:10:36.084Z,32.30
2018-07-30T16:13:04.724Z,32.40
2018-07-30T16:15:33.267Z,32.50
2018-07-30T16:18:01.775Z,32.50
2018-07-30T16:20:30.267Z,32.50
2018-07-30T16:22:59.260Z,32.50
2018-07-30T16:25:27.753Z,32.50
2018-07-30T16:27:56.252Z,32.40
2018-07-30T16:30:24.930Z,32.30
2018-07-30T16:32:53.499Z,31.90
2018-07-30T16:35:22.033Z,31.60
2018-07-30T16:37:51.092Z,31.50
2018-07-30T16:40:19.744Z,31.60
2018-07-30T16:42:48.303Z,31.30
2018-07-30T16:45:16.880Z,31.00
2018-07-30T16:47:45.379Z,31.00
2018-07-30T16:50:13.900Z,31.10
2018-07-30T16:52:42.364Z,31.10
2018-07-30T16:55:10.913Z,31.20
2018-07-30T16:57:40.302Z,31.30
2018-07-30T17:00:10.940Z,31.40
2018-07-30T17:02:39.564Z,31.40
2018-07-30T17:05:08.416Z,31.40
2018-07-30T17:07:36.996Z,31.30
2018-07-30T17:10:05.549Z,31.20
2018-07-30T17:12:34.036Z,31.10
2018-07-30T17:15:02.652Z,31.10
2018-07-30T17:17:31.160Z,31.20
2018-07-30T17:19:59.696Z,31.30
2018-07-30T17:22:28.312Z,31.30
2018-07-30T17:24:56.875Z,31.40
2018-07-30T17:27:26.711Z,31.40
2018-07-30T17:29:55.399Z,31.30
2018-07-30T17:32:24.085Z,31.30
2018-07-30T17:34:52.710Z,31.30
2018-07-30T17:37:21.459Z,31.40
2018-07-30T17:39:50.320Z,31.30
2018-07-30T17:42:21.168Z,31.20
2018-07-30T17:44:49.948Z,31.10
2018-07-30T17:47:18.661Z,31.00
2018-07-30T17:49:47.244Z,31.00
2018-07-30T17:52:15.793Z,30.90
2018-07-30T17:54:45.389Z,30.80
2018-07-30T17:57:13.999Z,30.80
2018-07-30T17:59:42.515Z,30.70
2018-07-30T18:02:11.084Z,30.60
2018-07-30T18:04:39.557Z,30.50
2018-07-30T18:07:08.033Z,30.50
2018-07-30T18:09:36.524Z,30.50
2018-07-30T18:12:05.074Z,30.40
2018-07-30T18:14:34.222Z,30.30
2018-07-30T18:17:02.737Z,30.20
2018-07-30T18:19:31.407Z,30.20
2018-07-30T18:22:00.209Z,30.20
2018-07-30T18:24:32.722Z,30.10
2018-07-30T18:27:01.561Z,30.00
2018-07-30T18:29:30.081Z,30.00
2018-07-30T18:31:58.593Z,29.90
2018-07-30T18:34:27.140Z,29.90
2018-07-30T18:36:55.640Z,29.70
2018-07-30T18:39:24.223Z,29.60
2018-07-30T18:41:52.952Z,29.60
2018-07-30T18:44:21.497Z,29.60
2018-07-30T18:46:50.131Z,29.50
2018-07-30T18:49:18.625Z,29.50
2018-07-30T18:51:48.333Z,29.40
2018-07-30T18:54:18.082Z,29.30
2018-07-30T18:56:46.737Z,29.20
2018-07-30T18:59:15.158Z,29.10
2018-07-30T19:01:43.872Z,29.10
2018-07-30T19:04:12.354Z,29.00
2018-07-30T19:06:40.915Z,29.00
2018-07-30T19:09:10.364Z,28.90
2018-07-30T19:11:38.880Z,28.80
2018-07-30T19:14:07.473Z,28.80
2018-07-30T19:16:36.102Z,28.70
2018-07-30T19:19:04.580Z,28.60
2018-07-30T19:21:33.045Z,28.50
2018-07-30T19:24:01.621Z,28.30
2018-07-30T19:26:30.099Z,28.20
2018-07-30T19:28:58.696Z,28.10
2018-07-30T19:31:27.268Z,28.00
2018-07-30T19:33:55.730Z,27.90
2018-07-30T19:36:24.376Z,27.80
2018-07-30T19:38:53.446Z,27.70
2018-07-30T19:41:22.242Z,27.60
2018-07-30T19:43:51.778Z,27.50
2018-07-30T19:46:20.531Z,27.50
2018-07-30T19:48:49.089Z,27.40
2018-07-30T19:51:17.626Z,27.30
2018-07-30T19:53:46.148Z,27.20
2018-07-30T19:56:14.784Z,27.20
2018-07-30T19:58:43.549Z,27.10
2018-07-30T20:01:11.866Z,27.00
2018-07-30T20:03:40.833Z,27.00
2018-07-30T20:06:09.288Z,26.90
2018-07-30T20:08:37.793Z,26.80
2018-07-30T20:13:35.456Z,26.70
2018-07-30T20:16:04.685Z,26.60
2018-07-30T20:18:33.612Z,26.50
2018-07-30T20:21:02.116Z,26.40
2018-07-30T20:23:30.717Z,26.40
2018-07-30T20:25:59.374Z,26.30
2018-07-30T20:28:28.910Z,26.20
2018-07-30T20:30:57.478Z,26.20
2018-07-30T20:33:26.541Z,26.10
2018-07-30T20:35:55.447Z,26.10
2018-07-30T20:38:23.933Z,25.80
2018-07-30T20:40:52.496Z,25.80
2018-07-30T20:43:21.451Z,25.70
2018-07-30T20:45:49.954Z,25.60
2018-07-30T20:48:18.430Z,25.50
2018-07-30T20:50:47.949Z,25.30
2018-07-30T20:53:16.447Z,25.30
2018-07-30T20:55:45.078Z,25.20
2018-07-30T20:58:13.658Z,25.10
2018-07-30T21:00:42.202Z,25.00
2018-07-30T21:03:10.858Z,25.00
2018-07-30T21:05:42.585Z,25.00
2018-07-30T21:08:13.754Z,24.90
2018-07-30T21:10:43.722Z,24.90
2018-07-30T21:13:12.735Z,24.90
2018-07-30T21:15:41.311Z,24.90
2018-07-30T21:18:09.800Z,24.90
2018-07-30T21:20:38.356Z,24.90
2018-07-30T21:23:06.861Z,24.90
2018-07-30T21:25:35.405Z,24.90
2018-07-30T21:30:32.590Z,24.80
2018-07-30T21:33:01.180Z,24.70
2018-07-30T21:35:29.669Z,24.70
2018-07-30T21:37:58.180Z,24.70
2018-07-30T21:40:26.778Z,24.70
2018-07-30T21:42:55.268Z,24.70
2018-07-30T21:45:24.023Z,24.60
2018-07-30T21:47:52.721Z,24.50
2018-07-30T21:50:21.208Z,24.50
2018-07-30T21:52:49.737Z,24.50
2018-07-30T21:55:18.218Z,24.40
2018-07-30T21:57:46.966Z,24.40
2018-07-30T22:02:50.460Z,24.20
2018-07-30T22:05:19.241Z,24.20
2018-07-30T22:07:47.933Z,24.20
2018-07-30T22:10:17.006Z,24.10
2018-07-30T22:12:46.100Z,24.10
2018-07-30T22:15:14.773Z,24.00
2018-07-30T22:17:43.272Z,24.00
2018-07-30T22:20:11.784Z,24.00
2018-07-30T22:25:08.603Z,23.80
2018-07-30T22:27:37.154Z,23.70
2018-07-30T22:30:07.793Z,23.70
2018-07-30T22:32:36.357Z,23.70
2018-07-30T22:35:06.421Z,23.70
2018-07-30T22:37:34.938Z,23.90
2018-07-30T22:40:03.648Z,23.80
2018-07-30T22:42:32.154Z,23.70
2018-07-30T22:45:00.794Z,23.70
2018-07-30T22:47:29.740Z,23.60
2018-07-30T22:49:58.787Z,23.50
2018-07-30T22:52:27.457Z,23.40
2018-07-30T22:54:56.039Z,23.40
2018-07-30T22:57:24.530Z,23.40
2018-07-30T22:59:53.109Z,23.30
2018-07-30T23:02:21.644Z,23.20
2018-07-30T23:04:50.163Z,23.20
2018-07-30T23:07:18.680Z,23.20
2018-07-30T23:09:47.152Z,23.10
2018-07-30T23:12:15.800Z,23.10
2018-07-30T23:17:12.583Z,23.10
2018-07-30T23:19:41.030Z,23.10
2018-07-30T23:22:10.224Z,23.00
2018-07-30T23:24:38.827Z,23.00
2018-07-30T23:27:07.418Z,23.00
2018-07-30T23:29:36.024Z,23.00
2018-07-30T23:32:04.549Z,23.00
2018-07-30T23:34:33.069Z,23.00
2018-07-30T23:37:01.567Z,22.90
2018-07-30T23:39:30.104Z,22.70
2018-07-30T23:41:58.829Z,22.50
2018-07-30T23:44:27.325Z,22.40
2018-07-30T23:46:55.840Z,22.40
2018-07-30T23:49:24.399Z,22.50
2018-07-30T23:51:52.864Z,22.60
2018-07-30T23:54:21.319Z,22.60
2018-07-30T23:56:50.397Z,22.60
2018-07-30T23:59:19.369Z,22.60
